Time;durP1;ratioP1;P1;durP2;ratioP2;P2;SDS_P1;SDS_P2;PMS_P1;PMS_P2;Temp;Humidity;BMP_temperature;BMP_pressure;BME280_temperature;BME280_humidity;BME280_pressure;Samples;Min_cycle;Max_cycle;Signal;HPM_P1;HPM_P2
2022/03/21 00:01:00;;;;;;;32.63;19.85;;;7.60;99.90;;;;;;5015664;28;20456;-78
2022/03/21 00:03:31;;;;;;;36.83;20.23;;;7.60;99.90;;;;;;5032552;28;20492;-76
2022/03/21 00:05:58;;;;;;;38.17;21.48;;;7.60;99.90;;;;;;5032354;28;20491;-81
2022/03/21 00:08:24;;;;;;;34.55;20.73;;;7.60;99.90;;;;;;5032084;28;20040;-77
2022/03/21 00:10:52;;;;;;;33.10;20.45;;;7.60;99.90;;;;;;5031645;28;20025;-77
2022/03/21 00:13:19;;;;;;;33.70;19.98;;;7.60;99.90;;;;;;5031606;28;20034;-78
2022/03/21 00:15:50;;;;;;;30.40;19.13;;;7.60;99.90;;;;;;5017186;28;20025;-78
2022/03/21 00:18:17;;;;;;;39.90;21.08;;;7.50;99.90;;;;;;5036001;28;20128;-78
2022/03/21 00:20:44;;;;;;;34.25;21.58;;;7.50;99.90;;;;;;5036489;28;20071;-78
2022/03/21 00:23:11;;;;;;;38.47;21.40;;;7.50;99.90;;;;;;5018315;28;20021;-78
2022/03/21 00:25:37;;;;;;;35.30;21.10;;;7.60;99.90;;;;;;5036179;28;20029;-78
2022/03/21 00:28:03;;;;;;;34.15;20.38;;;7.60;99.90;;;;;;5035908;28;20384;-78
2022/03/21 00:30:29;;;;;;;37.53;22.20;;;7.50;99.90;;;;;;5018451;28;20040;-78
2022/03/21 00:32:56;;;;;;;33.28;19.90;;;7.40;99.90;;;;;;5035892;28;20025;-78
2022/03/21 00:35:23;;;;;;;44.50;22.98;;;7.40;99.90;;;;;;5037293;28;20465;-79
2022/03/21 00:37:49;;;;;;;37.13;21.27;;;7.40;99.90;;;;;;5040195;28;20044;-80
2022/03/21 00:40:17;;;;;;;45.92;26.60;;;7.40;99.90;;;;;;5036191;28;20026;-80
2022/03/21 00:42:44;;;;;;;43.90;24.15;;;7.40;99.90;;;;;;5036170;28;20080;-79
2022/03/21 00:45:16;;;;;;;40.88;23.40;;;7.40;99.90;;;;;;5051368;28;20230;-79
2022/03/21 00:47:43;;;;;;;42.03;24.27;;;7.40;99.90;;;;;;5037815;28;20035;-79
2022/03/21 00:50:10;;;;;;;49.47;26.48;;;7.40;99.90;;;;;;5038030;28;20036;-78
2022/03/21 00:52:51;;;;;;;40.60;25.13;;;7.30;99.90;;;;;;5037987;28;20484;-79
2022/03/21 00:55:18;;;;;;;39.60;26.05;;;7.30;99.90;;;;;;5055837;28;20083;-79
2022/03/21 00:57:45;;;;;;;42.63;21.58;;;7.30;99.90;;;;;;5055732;28;20017;-79
2022/03/21 01:00:15;;;;;;;41.08;23.33;;;7.30;99.90;;;;;;5037697;28;20551;-78
2022/03/21 01:02:41;;;;;;;38.53;21.35;;;7.30;99.90;;;;;;5037476;28;20028;-78
2022/03/21 01:05:09;;;;;;;36.33;21.80;;;7.30;99.90;;;;;;5055615;28;20107;-78
2022/03/21 01:07:35;;;;;;;34.30;20.27;;;7.40;99.90;;;;;;5037800;28;20024;-79
2022/03/21 01:10:04;;;;;;;38.80;20.55;;;7.40;99.90;;;;;;5056362;28;20029;-78
2022/03/21 01:12:29;;;;;;;35.08;20.00;;;7.50;99.90;;;;;;5056028;28;20036;-78
2022/03/21 01:14:55;;;;;;;31.90;19.30;;;7.60;99.90;;;;;;5037543;28;20089;-79
2022/03/21 01:17:20;;;;;;;41.05;21.40;;;7.70;99.90;;;;;;5055259;28;20082;-79
2022/03/21 01:19:46;;;;;;;40.28;17.75;;;7.90;99.90;;;;;;5055517;28;20029;-78
2022/03/21 01:22:13;;;;;;;32.75;18.10;;;8.10;99.90;;;;;;5055273;28;20025;-79
2022/03/21 01:24:38;;;;;;;39.97;20.00;;;8.20;99.90;;;;;;5055588;28;20021;-79
2022/03/21 01:27:08;;;;;;;43.08;20.33;;;8.40;99.90;;;;;;5040169;28;20031;-79
2022/03/21 01:29:34;;;;;;;41.03;20.83;;;8.40;99.90;;;;;;5038561;28;20385;-79
2022/03/21 01:32:00;;;;;;;33.42;18.75;;;8.50;99.90;;;;;;5056283;28;20151;-78
2022/03/21 01:34:26;;;;;;;42.50;22.10;;;8.50;99.90;;;;;;5055852;28;20025;-79
2022/03/21 01:36:52;;;;;;;39.28;23.73;;;8.50;99.90;;;;;;5037445;28;20477;-79
2022/03/21 01:39:17;;;;;;;38.58;23.67;;;8.30;99.90;;;;;;5056037;28;20060;-80
2022/03/21 01:41:43;;;;;;;33.60;21.58;;;8.20;99.90;;;;;;5055509;28;20017;-78
2022/03/21 01:44:09;;;;;;;37.33;21.73;;;8.10;99.90;;;;;;5048107;28;20034;-79
2022/03/21 01:46:37;;;;;;;36.70;21.38;;;8.00;99.90;;;;;;5035115;28;20083;-79
2022/03/21 01:49:06;;;;;;;36.10;21.85;;;7.90;99.90;;;;;;5017100;28;20040;-78
2022/03/21 01:51:32;;;;;;;31.02;19.58;;;7.80;99.90;;;;;;5017137;28;20053;-79
2022/03/21 01:56:45;;;;;;;32.70;20.15;;;7.60;99.90;;;;;;5035217;28;20041;-78
2022/03/21 01:59:12;;;;;;;35.25;21.55;;;7.60;99.90;;;;;;5016164;28;20033;-77
2022/03/21 02:01:40;;;;;;;40.28;22.85;;;7.60;99.90;;;;;;5034554;28;20021;-79
2022/03/21 02:04:06;;;;;;;40.55;22.77;;;7.50;99.90;;;;;;5017144;28;20503;-78
2022/03/21 02:06:32;;;;;;;44.05;25.70;;;7.50;99.90;;;;;;5016900;28;20034;-78
2022/03/21 02:08:58;;;;;;;36.63;23.23;;;7.60;99.90;;;;;;5034527;28;20025;-79
2022/03/21 02:11:28;;;;;;;36.10;22.67;;;7.60;99.90;;;;;;5034608;28;20021;-80
2022/03/21 02:13:56;;;;;;;39.78;22.42;;;7.60;99.90;;;;;;5034712;28;20373;-80
2022/03/21 02:16:23;;;;;;;39.70;22.38;;;7.60;99.90;;;;;;5034518;28;20029;-78
2022/03/21 02:18:49;;;;;;;41.38;22.92;;;7.60;99.90;;;;;;5034222;28;20393;-80
2022/03/21 02:21:23;;;;;;;39.58;24.35;;;7.60;99.90;;;;;;5034516;28;20026;-79
2022/03/21 02:23:58;;;;;;;35.00;22.15;;;7.60;99.90;;;;;;5034222;28;20021;-78
2022/03/21 02:26:25;;;;;;;35.35;19.98;;;7.60;99.90;;;;;;5016370;28;20029;-79
2022/03/21 02:28:51;;;;;;;33.40;20.33;;;7.50;99.90;;;;;;5016450;28;20036;-80
2022/03/21 02:31:17;;;;;;;39.45;22.48;;;7.50;99.90;;;;;;5016073;28;20021;-80
2022/03/21 02:33:43;;;;;;;36.03;21.80;;;7.40;99.90;;;;;;5016626;28;20481;-79
2022/03/21 02:36:10;;;;;;;39.40;22.75;;;7.40;99.90;;;;;;5033431;28;20025;-79
2022/03/21 02:38:37;;;;;;;35.97;22.05;;;7.30;99.90;;;;;;5015231;28;20025;-80
2022/03/21 02:41:03;;;;;;;42.42;25.85;;;7.30;99.90;;;;;;5033591;28;20021;-79
2022/03/21 02:43:28;;;;;;;39.45;24.63;;;7.30;99.90;;;;;;5034843;28;20452;-80
2022/03/21 02:46:06;;;;;;;43.38;24.27;;;7.30;99.90;;;;;;5053579;28;20435;-79
2022/03/21 02:48:31;;;;;;;39.75;23.23;;;7.30;99.90;;;;;;5037033;28;20051;-80
2022/03/21 02:51:02;;;;;;;41.78;24.75;;;7.30;99.90;;;;;;5059094;28;20033;-79
2022/03/21 02:53:30;;;;;;;35.65;21.50;;;7.30;99.90;;;;;;5040629;28;20121;-79
2022/03/21 02:55:56;;;;;;;40.10;23.02;;;7.30;99.90;;;;;;5038396;28;20025;-78
2022/03/21 02:58:22;;;;;;;37.05;22.30;;;7.20;99.90;;;;;;5053142;28;20452;-79
2022/03/21 03:00:48;;;;;;;33.90;19.88;;;7.20;99.90;;;;;;5053607;28;20064;-79
2022/03/21 03:03:14;;;;;;;37.47;22.00;;;7.10;99.90;;;;;;5052581;28;20025;-79
2022/03/21 03:05:40;;;;;;;37.88;22.27;;;7.00;99.90;;;;;;5052939;28;20029;-78
2022/03/21 03:08:05;;;;;;;37.28;21.60;;;6.90;99.90;;;;;;5052594;28;20032;-78
2022/03/21 03:10:31;;;;;;;113.22;56.00;;;6.90;99.90;;;;;;5052828;28;20063;-78
2022/03/21 03:12:56;;;;;;;93.57;49.17;;;6.70;99.90;;;;;;5052685;28;20388;-78
2022/03/21 03:15:22;;;;;;;63.15;33.85;;;6.70;99.90;;;;;;5052581;28;20384;-79
2022/03/21 03:17:47;;;;;;;46.03;25.83;;;6.70;99.90;;;;;;5052506;28;20036;-77
2022/03/21 03:20:13;;;;;;;43.38;24.17;;;6.70;99.90;;;;;;5052644;28;20443;-78
2022/03/21 03:22:39;;;;;;;49.55;27.85;;;6.60;99.90;;;;;;5034700;28;20025;-78
2022/03/21 03:25:05;;;;;;;46.53;26.25;;;6.60;99.90;;;;;;5052609;28;20029;-78
2022/03/21 03:27:31;;;;;;;56.17;29.50;;;6.60;99.90;;;;;;5052415;28;20029;-78
2022/03/21 03:29:58;;;;;;;44.33;26.15;;;6.60;99.90;;;;;;5034671;28;20027;-78
2022/03/21 03:32:24;;;;;;;50.90;28.70;;;6.60;99.90;;;;;;5052697;28;20048;-79
2022/03/21 03:34:50;;;;;;;46.78;26.58;;;6.60;99.90;;;;;;5052290;28;20028;-78
2022/03/21 03:37:16;;;;;;;40.85;24.15;;;6.50;99.90;;;;;;5034355;28;20024;-78
2022/03/21 03:39:43;;;;;;;45.15;25.98;;;6.40;99.90;;;;;;5052612;28;20056;-78
2022/03/21 03:42:08;;;;;;;45.45;26.33;;;6.30;99.90;;;;;;5052716;28;20105;-78
2022/03/21 03:44:34;;;;;;;45.92;25.80;;;6.20;99.90;;;;;;5041837;28;20517;-78
2022/03/21 03:46:59;;;;;;;45.05;24.88;;;6.10;99.90;;;;;;5014900;28;20041;-79
2022/03/21 03:49:26;;;;;;;40.70;25.02;;;6.00;99.90;;;;;;5015191;28;20033;-77
2022/03/21 03:51:52;;;;;;;44.53;26.38;;;6.00;99.90;;;;;;5018816;28;20341;-79
2022/03/21 03:54:17;;;;;;;43.22;26.52;;;5.90;99.90;;;;;;5036192;28;20025;-78
2022/03/21 03:56:43;;;;;;;43.10;24.60;;;5.80;99.90;;;;;;5036512;28;20040;-77
2022/03/21 03:59:08;;;;;;;44.30;24.50;;;5.70;99.90;;;;;;5018236;28;20029;-79
2022/03/21 04:01:34;;;;;;;43.95;26.55;;;5.60;99.90;;;;;;5036761;28;20026;-78
2022/03/21 04:04:00;;;;;;;44.08;25.23;;;5.50;99.90;;;;;;5018447;28;20051;-78
2022/03/21 04:06:27;;;;;;;45.72;24.77;;;5.40;99.90;;;;;;5035956;28;20500;-78
2022/03/21 04:08:52;;;;;;;45.70;25.52;;;5.30;99.90;;;;;;5036149;28;20030;-78
2022/03/21 04:11:19;;;;;;;41.40;25.38;;;5.30;99.90;;;;;;5036617;28;20060;-79
2022/03/21 04:13:45;;;;;;;50.80;26.67;;;5.20;99.90;;;;;;5036203;28;20026;-78
2022/03/21 04:16:11;;;;;;;43.13;26.17;;;5.20;99.90;;;;;;5035307;28;20029;-78
2022/03/21 04:18:37;;;;;;;43.55;24.92;;;5.10;99.90;;;;;;5035295;28;20354;-77
2022/03/21 04:21:04;;;;;;;45.08;26.30;;;5.10;99.90;;;;;;5035475;28;20488;-77
2022/03/21 04:23:29;;;;;;;46.72;25.52;;;5.00;99.90;;;;;;5035218;28;20034;-76
2022/03/21 04:25:55;;;;;;;43.13;25.45;;;5.00;99.90;;;;;;5035129;28;20168;-76
2022/03/21 04:28:21;;;;;;;48.45;25.73;;;4.90;99.90;;;;;;5034773;28;20025;-78
2022/03/21 04:30:46;;;;;;;45.88;25.92;;;4.90;99.90;;;;;;5017219;28;20536;-78
2022/03/21 04:33:12;;;;;;;57.33;30.85;;;4.90;99.90;;;;;;5017319;28;20030;-78
2022/03/21 04:35:39;;;;;;;55.05;29.92;;;4.90;99.90;;;;;;5035271;28;20083;-77
2022/03/21 04:38:16;;;;;;;54.80;30.13;;;4.90;99.90;;;;;;5017046;28;20025;-78
2022/03/21 04:40:47;;;;;;;50.75;27.70;;;5.00;99.90;;;;;;5042626;28;20024;-78
2022/03/21 04:43:14;;;;;;;45.38;27.10;;;4.90;99.90;;;;;;5042283;28;20105;-77
2022/03/21 04:45:44;;;;;;;47.47;26.85;;;4.90;99.90;;;;;;5055301;28;20407;-77
2022/03/21 04:48:10;;;;;;;55.00;31.05;;;4.90;99.90;;;;;;5037299;28;20090;-77
2022/03/21 04:50:36;;;;;;;52.45;29.23;;;4.90;99.90;;;;;;5037444;28;20366;-77
2022/03/21 04:53:02;;;;;;;48.42;27.25;;;4.90;99.90;;;;;;5036973;28;20025;-77
2022/03/21 04:55:28;;;;;;;53.00;27.35;;;4.90;99.90;;;;;;5054752;28;20506;-77
2022/03/21 04:57:54;;;;;;;44.30;27.63;;;4.90;99.90;;;;;;5037257;28;20021;-79
2022/03/21 05:00:19;;;;;;;44.70;27.60;;;4.80;99.90;;;;;;5057054;28;20025;-78
2022/03/21 05:02:45;;;;;;;47.78;26.58;;;4.80;99.90;;;;;;5038997;28;20051;-79
2022/03/21 05:05:11;;;;;;;52.50;28.20;;;4.80;99.90;;;;;;5038141;28;20021;-79
2022/03/21 05:07:52;;;;;;;49.30;26.77;;;4.70;99.90;;;;;;5055873;28;20377;-79
2022/03/21 05:10:18;;;;;;;48.45;27.00;;;4.70;99.90;;;;;;5038030;28;20492;-78
2022/03/21 05:12:44;;;;;;;49.58;28.30;;;4.60;99.90;;;;;;5037360;28;20476;-79
2022/03/21 05:15:10;;;;;;;46.95;26.55;;;4.60;99.90;;;;;;5037993;28;20040;-78
2022/03/21 05:17:35;;;;;;;50.55;27.50;;;4.60;99.90;;;;;;5037228;28;20040;-79
2022/03/21 05:20:02;;;;;;;46.13;26.48;;;4.60;99.90;;;;;;5037364;28;20033;-77
2022/03/21 05:22:28;;;;;;;51.15;27.10;;;4.50;99.90;;;;;;5054648;28;20079;-78
2022/03/21 05:30:57;;;;;;;49.90;27.85;;;4.50;99.90;;;;;;5055176;28;20036;-78
2022/03/21 05:36:00;;;;;;;46.25;26.38;;;4.40;99.90;;;;;;5055518;28;20040;-78
2022/03/21 05:38:28;;;;;;;47.75;26.55;;;4.40;99.90;;;;;;5054911;28;20021;-76
2022/03/21 05:40:59;;;;;;;47.38;26.10;;;4.30;99.90;;;;;;5055462;28;20096;-78
2022/03/21 05:43:26;;;;;;;41.83;24.13;;;4.20;99.90;;;;;;5053361;28;20023;-79
2022/03/21 05:45:54;;;;;;;43.85;25.35;;;4.20;99.90;;;;;;5018524;28;20116;-78
2022/03/21 05:51:05;;;;;;;52.95;27.65;;;4.10;99.90;;;;;;5035022;28;20064;-79
2022/03/21 05:53:31;;;;;;;50.63;28.58;;;4.20;99.90;;;;;;5017078;28;20501;-79
2022/03/21 05:56:00;;;;;;;50.78;26.23;;;4.20;99.90;;;;;;5034436;28;20032;-78
2022/03/21 05:58:28;;;;;;;46.65;26.95;;;4.20;99.90;;;;;;5034426;28;20102;-76
2022/03/21 06:00:55;;;;;;;49.78;27.67;;;4.20;99.90;;;;;;5034201;28;20022;-76
2022/03/21 06:03:22;;;;;;;52.22;28.77;;;4.20;99.90;;;;;;5035367;28;20021;-77
2022/03/21 06:05:49;;;;;;;52.15;28.20;;;4.20;99.90;;;;;;5034503;28;20025;-78
2022/03/21 06:08:14;;;;;;;43.53;25.45;;;4.30;99.90;;;;;;5033995;28;20096;-78
2022/03/21 06:10:40;;;;;;;46.00;24.30;;;4.40;99.90;;;;;;5035207;28;20056;-77
2022/03/21 06:13:06;;;;;;;56.63;28.30;;;4.30;99.90;;;;;;5033598;28;20036;-76
2022/03/21 06:15:36;;;;;;;46.03;27.20;;;4.30;99.90;;;;;;5035134;28;20026;-78
2022/03/21 06:18:02;;;;;;;49.97;29.48;;;4.30;99.90;;;;;;5040507;23;20517;-77
2022/03/21 06:20:28;;;;;;;52.90;28.85;;;4.40;99.90;;;;;;5013290;28;20428;-77
2022/03/21 06:22:54;;;;;;;52.38;29.30;;;4.50;99.90;;;;;;4995581;28;20112;-77
2022/03/21 06:25:20;;;;;;;61.22;31.63;;;4.60;99.90;;;;;;5013382;28;20457;-76
2022/03/21 06:27:48;;;;;;;53.63;29.95;;;4.80;99.90;;;;;;5025077;28;20029;-77
2022/03/21 06:30:14;;;;;;;48.55;29.10;;;5.00;99.90;;;;;;5032621;28;20075;-76
2022/03/21 06:32:40;;;;;;;49.65;28.70;;;5.10;99.90;;;;;;5033014;28;20136;-77
2022/03/21 06:35:09;;;;;;;46.40;28.27;;;5.20;99.90;;;;;;5033079;28;20037;-76
2022/03/21 06:37:35;;;;;;;56.90;31.42;;;5.30;99.90;;;;;;5014962;28;20018;-76
2022/03/21 06:40:00;;;;;;;51.90;29.02;;;5.50;99.90;;;;;;5032692;28;20388;-76
2022/03/21 06:42:26;;;;;;;48.50;27.75;;;5.70;99.90;;;;;;5032680;28;20064;-77
2022/03/21 06:44:53;;;;;;;38.30;24.58;;;5.90;99.90;;;;;;5027305;28;20136;-76
2022/03/21 06:47:19;;;;;;;41.45;25.00;;;6.00;99.90;;;;;;5052192;28;20503;-76
2022/03/21 06:49:44;;;;;;;38.22;23.10;;;6.20;99.90;;;;;;5034680;28;20105;-76
2022/03/21 06:52:10;;;;;;;38.08;23.85;;;6.40;99.90;;;;;;5034399;28;20461;-76
2022/03/21 06:54:36;;;;;;;45.25;26.90;;;6.70;99.90;;;;;;5034860;28;20025;-77
2022/03/21 06:57:03;;;;;;;45.20;28.92;;;6.90;99.90;;;;;;5052193;28;20048;-77
2022/03/21 06:59:29;;;;;;;55.58;29.20;;;7.10;99.90;;;;;;5034752;28;20021;-75
2022/03/21 07:01:56;;;;;;;43.47;26.05;;;7.30;99.90;;;;;;5034429;28;20028;-76
2022/03/21 07:04:23;;;;;;;46.45;28.15;;;7.60;99.90;;;;;;5053328;28;20384;-78
2022/03/21 07:06:48;;;;;;;44.45;26.85;;;7.70;99.90;;;;;;5034710;28;20036;-75
2022/03/21 07:09:14;;;;;;;43.10;27.25;;;8.00;99.90;;;;;;5052758;28;20021;-76
2022/03/21 07:11:40;;;;;;;44.80;27.63;;;8.20;99.90;;;;;;5034568;28;20523;-76
2022/03/21 07:14:05;;;;;;;45.15;26.77;;;8.40;99.90;;;;;;5034828;28;20333;-76
2022/03/21 07:16:31;;;;;;;46.28;27.15;;;8.70;99.90;;;;;;5034407;28;20238;-75
2022/03/21 07:18:56;;;;;;;49.00;26.65;;;8.90;99.90;;;;;;5052717;28;20531;-75
2022/03/21 07:21:22;;;;;;;47.70;26.90;;;9.10;99.90;;;;;;5053469;28;20487;-76
2022/03/21 07:23:48;;;;;;;50.65;27.13;;;9.30;99.90;;;;;;5035605;28;20021;-76
2022/03/21 07:26:14;;;;;;;52.08;28.27;;;9.50;99.90;;;;;;5053500;28;20040;-77
2022/03/21 07:28:40;;;;;;;45.30;26.33;;;9.80;99.90;;;;;;5053809;28;20475;-76
2022/03/21 07:31:13;;;;;;;41.88;25.17;;;10.00;99.90;;;;;;5035814;28;20028;-77
2022/03/21 07:33:40;;;;;;;49.90;27.05;;;10.30;99.90;;;;;;5053750;28;20027;-75
2022/03/21 07:36:07;;;;;;;38.55;24.10;;;10.50;99.90;;;;;;5053194;28;20029;-77
2022/03/21 07:38:34;;;;;;;47.17;26.27;;;10.70;99.90;;;;;;5035759;28;20029;-77
2022/03/21 07:40:59;;;;;;;44.42;26.15;;;11.00;99.90;;;;;;5036427;28;20040;-80
2022/03/21 07:43:25;;;;;;;40.05;24.95;;;11.30;99.90;;;;;;5052751;28;20433;-78
2022/03/21 07:48:35;;;;;;;44.35;24.63;;;11.80;99.90;;;;;;5033825;28;20048;-75
2022/03/21 07:51:02;;;;;;;39.92;22.48;;;11.80;99.90;;;;;;5033942;28;20354;-77
2022/03/21 07:53:28;;;;;;;44.47;24.42;;;12.10;99.90;;;;;;5033116;28;20026;-75
2022/03/21 07:55:54;;;;;;;38.70;21.67;;;12.30;99.90;;;;;;5034111;28;20033;-77
2022/03/21 07:58:19;;;;;;;32.00;19.83;;;12.40;99.90;;;;;;5017159;28;20033;-80
2022/03/21 08:00:46;;;;;;;26.70;17.33;;;12.80;99.90;;;;;;5016127;28;20026;-76
2022/03/21 08:03:14;;;;;;;31.67;18.27;;;13.00;99.90;;;;;;5033953;28;20381;-77
2022/03/21 08:05:41;;;;;;;23.58;16.17;;;13.10;99.90;;;;;;5015953;28;20075;-78
2022/03/21 08:08:07;;;;;;;23.02;13.80;;;13.30;92.10;;;;;;5017203;28;20544;-77
2022/03/21 08:10:34;;;;;;;21.58;15.38;;;13.50;86.00;;;;;;5015454;28;20129;-76
2022/03/21 08:12:59;;;;;;;28.33;16.15;;;13.70;86.40;;;;;;5015401;28;20025;-75
2022/03/21 08:15:28;;;;;;;25.27;15.23;;;13.80;82.90;;;;;;5033068;28;20040;-76
2022/03/21 08:17:56;;;;;;;21.85;14.48;;;14.10;85.00;;;;;;5032905;28;20412;-76
2022/03/21 08:20:23;;;;;;;21.58;15.23;;;14.30;80.00;;;;;;5015335;28;20025;-77
2022/03/21 08:22:49;;;;;;;21.05;15.13;;;14.50;79.40;;;;;;5015210;28;20026;-77
2022/03/21 08:25:17;;;;;;;22.73;15.25;;;14.70;73.00;;;;;;5015537;28;20030;-77
2022/03/21 08:27:44;;;;;;;22.80;14.60;;;14.60;69.00;;;;;;5032950;28;20026;-77
2022/03/21 08:30:12;;;;;;;24.10;14.82;;;14.70;70.10;;;;;;5015659;28;20029;-74
2022/03/21 08:32:37;;;;;;;20.33;14.15;;;14.70;69.60;;;;;;5033168;28;20025;-77
2022/03/21 08:35:03;;;;;;;26.13;15.57;;;15.00;69.30;;;;;;5015075;28;20022;-76
2022/03/21 08:37:29;;;;;;;24.60;14.55;;;15.10;68.20;;;;;;5036156;28;20025;-75
2022/03/21 08:39:54;;;;;;;21.52;13.93;;;15.20;67.50;;;;;;5036861;28;20028;-77
2022/03/21 08:42:20;;;;;;;21.83;14.15;;;15.30;66.70;;;;;;5036122;28;20057;-77
2022/03/21 08:44:46;;;;;;;19.50;13.43;;;15.60;66.60;;;;;;5048597;28;20029;-76
2022/03/21 08:47:11;;;;;;;22.52;14.77;;;15.80;64.80;;;;;;5038293;28;20025;-78
2022/03/21 08:49:38;;;;;;;25.02;15.98;;;16.00;64.20;;;;;;5056368;28;20108;-78
2022/03/21 08:52:08;;;;;;;24.25;14.40;;;16.30;63.90;;;;;;5055885;28;20049;-77
2022/03/21 08:54:33;;;;;;;20.95;14.57;;;16.20;59.50;;;;;;5056556;28;20102;-77
2022/03/21 08:56:59;;;;;;;21.70;15.18;;;16.30;60.70;;;;;;5063648;28;20116;-77
2022/03/21 08:59:25;;;;;;;20.13;14.18;;;16.40;59.40;;;;;;5065818;28;20025;-76
2022/03/21 09:01:52;;;;;;;20.33;14.93;;;16.60;60.50;;;;;;5060401;28;20021;-77
2022/03/21 09:04:17;;;;;;;20.15;13.82;;;16.60;59.80;;;;;;5058558;28;20021;-77
2022/03/21 09:06:43;;;;;;;19.75;13.65;;;16.70;61.00;;;;;;5039209;28;20396;-76
2022/03/21 09:09:10;;;;;;;21.65;14.70;;;17.10;62.40;;;;;;5055574;28;20033;-76
2022/03/21 09:11:37;;;;;;;19.15;13.30;;;17.40;61.50;;;;;;5038392;28;20507;-76
2022/03/21 09:14:03;;;;;;;18.95;13.77;;;17.70;60.30;;;;;;5038813;28;20562;-77
2022/03/21 09:16:29;;;;;;;20.85;12.65;;;18.00;59.30;;;;;;5055270;28;20064;-75
2022/03/21 09:18:54;;;;;;;23.25;15.32;;;18.20;59.60;;;;;;5055641;28;20029;-75
2022/03/21 09:21:20;;;;;;;22.40;14.90;;;18.20;55.70;;;;;;5055824;28;20415;-77
2022/03/21 09:23:46;;;;;;;20.67;14.00;;;18.20;56.80;;;;;;5058424;28;20036;-77
2022/03/21 09:26:11;;;;;;;22.92;14.02;;;18.10;55.60;;;;;;5041352;28;20112;-77
2022/03/21 09:28:42;;;;;;;23.73;15.75;;;18.00;56.30;;;;;;5058746;28;20021;-77
2022/03/21 09:31:07;;;;;;;20.65;13.68;;;18.10;56.40;;;;;;5059524;28;20075;-75
2022/03/21 09:33:34;;;;;;;20.73;14.05;;;18.10;55.70;;;;;;5040540;28;20383;-76
2022/03/21 09:36:00;;;;;;;23.58;15.05;;;18.10;55.20;;;;;;5062143;28;20055;-76
2022/03/21 09:38:25;;;;;;;21.23;15.13;;;18.30;57.20;;;;;;5058211;28;20017;-76
2022/03/21 09:40:51;;;;;;;24.17;15.55;;;18.60;56.80;;;;;;5042528;28;20071;-75
2022/03/21 09:43:17;;;;;;;24.83;15.32;;;18.80;55.50;;;;;;5058659;28;20114;-77
2022/03/21 09:45:43;;;;;;;21.05;14.55;;;19.00;54.10;;;;;;5018838;28;20092;-77
2022/03/21 09:48:12;;;;;;;21.02;14.35;;;19.10;55.70;;;;;;5020816;28;20026;-76
2022/03/21 09:50:42;;;;;;;22.42;15.18;;;19.30;53.20;;;;;;5018081;28;20030;-76
2022/03/21 09:53:10;;;;;;;24.38;15.02;;;19.30;54.00;;;;;;5015213;28;20022;-75
2022/03/21 09:55:35;;;;;;;22.80;14.57;;;19.30;54.70;;;;;;4997509;28;20053;-74
2022/03/21 09:58:02;;;;;;;19.17;14.68;;;19.30;54.90;;;;;;5015179;28;20018;-77
2022/03/21 10:00:28;;;;;;;21.52;15.15;;;19.20;54.20;;;;;;4997527;28;20025;-77
2022/03/21 10:02:54;;;;;;;19.52;13.95;;;19.40;54.80;;;;;;5015163;28;20087;-76
2022/03/21 10:05:43;;;;;;;22.17;14.90;;;19.40;53.80;;;;;;5017833;28;20032;-80
2022/03/21 10:08:21;;;;;;;24.58;14.68;;;19.30;53.20;;;;;;5022618;28;20026;-82
2022/03/21 10:11:07;;;;;;;21.55;15.35;;;19.50;53.80;;;;;;5002847;28;20026;-79
2022/03/21 10:13:34;;;;;;;24.52;15.23;;;19.60;53.70;;;;;;5003450;28;20042;-80
2022/03/21 10:16:13;;;;;;;23.23;14.90;;;19.60;55.00;;;;;;4999991;28;20036;-79
2022/03/21 10:18:56;;;;;;;24.10;15.52;;;19.90;54.00;;;;;;4999278;28;20410;-84
2022/03/21 10:21:24;;;;;;;23.67;15.23;;;20.00;54.70;;;;;;5001405;28;20026;-81
2022/03/21 10:24:02;;;;;;;22.95;15.98;;;20.00;54.00;;;;;;5005288;28;20115;-81
2022/03/21 10:26:31;;;;;;;24.60;15.75;;;20.00;54.50;;;;;;5005446;28;20118;-80
2022/03/21 10:28:59;;;;;;;22.77;14.48;;;19.80;53.90;;;;;;5021048;28;20441;-82
2022/03/21 10:31:46;;;;;;;22.95;15.23;;;20.00;53.80;;;;;;5003978;28;20030;-81
2022/03/21 10:34:16;;;;;;;21.10;15.65;;;20.00;53.70;;;;;;5000674;28;20045;-79
2022/03/21 10:37:08;;;;;;;23.48;15.63;;;20.00;54.80;;;;;;5001464;28;20057;-80
2022/03/21 10:39:35;;;;;;;20.05;15.07;;;20.00;53.80;;;;;;5021265;28;20025;-80
2022/03/21 10:42:04;;;;;;;24.08;14.90;;;19.80;53.10;;;;;;5001953;28;20022;-79
2022/03/21 10:44:31;;;;;;;18.40;13.85;;;19.40;53.70;;;;;;5041308;28;20021;-80
2022/03/21 10:46:59;;;;;;;24.20;14.60;;;19.60;53.80;;;;;;5041190;28;20417;-76
2022/03/21 10:49:32;;;;;;;20.90;14.63;;;20.00;54.80;;;;;;5053668;28;20025;-76
2022/03/21 10:51:58;;;;;;;21.17;15.02;;;20.30;54.00;;;;;;5054365;28;20028;-76
2022/03/21 10:54:45;;;;;;;20.05;14.82;;;20.40;52.70;;;;;;5054701;28;20021;-76
2022/03/21 10:57:34;;;;;;;22.90;14.68;;;20.60;51.00;;;;;;5054538;28;20017;-76
2022/03/21 11:00:23;;;;;;;24.38;15.82;;;20.70;51.40;;;;;;5053954;28;20448;-76
2022/03/21 11:02:51;;;;;;;21.52;15.38;;;20.60;52.50;;;;;;5054235;28;20032;-76
2022/03/21 11:05:17;;;;;;;22.85;15.00;;;20.60;51.20;;;;;;5054310;28;20483;-76
2022/03/21 11:07:47;;;;;;;21.42;14.85;;;20.50;51.50;;;;;;5053509;28;20396;-76
2022/03/21 11:10:13;;;;;;;27.15;15.38;;;20.30;51.80;;;;;;5036763;28;20089;-76
2022/03/21 11:12:42;;;;;;;22.58;14.32;;;19.90;52.30;;;;;;5054249;28;20033;-77
2022/03/21 11:15:09;;;;;;;22.50;13.57;;;20.00;53.20;;;;;;5037716;28;20032;-76
2022/03/21 11:17:36;;;;;;;22.35;14.43;;;19.90;52.30;;;;;;5055516;28;20040;-76
2022/03/21 11:20:05;;;;;;;22.13;14.15;;;19.90;52.90;;;;;;5037780;28;20139;-78
2022/03/21 11:22:34;;;;;;;22.77;14.25;;;20.00;52.30;;;;;;5037747;28;20025;-75
2022/03/21 11:25:37;;;;;;;23.48;14.40;;;20.10;51.80;;;;;;5056818;28;20100;-78
2022/03/21 11:28:26;;;;;;;22.33;14.65;;;20.40;51.20;;;;;;5056650;28;20514;-76
2022/03/21 11:31:27;;;;;;;21.65;14.80;;;20.10;52.40;;;;;;5037102;28;20086;-76
2022/03/21 11:34:15;;;;;;;20.73;13.40;;;20.20;52.80;;;;;;4998892;28;20040;-74
2022/03/21 11:36:56;;;;;;;22.73;14.70;;;20.30;52.30;;;;;;5054801;28;20025;-79
2022/03/21 11:39:22;;;;;;;16.58;12.30;;;20.40;52.50;;;;;;5054872;28;20411;-76
2022/03/21 11:42:09;;;;;;;17.00;11.50;;;20.70;52.80;;;;;;5053553;28;20028;-76
2022/03/21 11:44:36;;;;;;;19.55;11.75;;;20.50;52.50;;;;;;5024652;28;20025;-74
2022/03/21 11:47:28;;;;;;;18.73;12.18;;;20.20;52.50;;;;;;5034229;28;20026;-76
2022/03/21 11:49:54;;;;;;;20.10;11.90;;;19.90;54.10;;;;;;5033654;28;20024;-75
2022/03/21 11:52:21;;;;;;;17.10;11.20;;;19.90;54.40;;;;;;5016159;28;20029;-77
2022/03/21 11:54:47;;;;;;;19.35;12.52;;;20.10;53.10;;;;;;5033472;28;20045;-77
2022/03/21 11:57:28;;;;;;;18.90;13.23;;;20.00;53.90;;;;;;5033524;28;20380;-77
2022/03/21 11:59:55;;;;;;;21.40;13.80;;;20.30;54.30;;;;;;5033964;28;20167;-75
2022/03/21 12:02:22;;;;;;;20.13;12.05;;;20.50;54.80;;;;;;5033487;28;20024;-76
2022/03/21 12:05:02;;;;;;;15.88;11.40;;;20.60;55.40;;;;;;5015849;28;20014;-76
2022/03/21 12:07:31;;;;;;;17.92;12.05;;;20.80;53.00;;;;;;5015609;28;20161;-78
2022/03/21 12:09:57;;;;;;;16.55;11.75;;;20.90;51.70;;;;;;5017229;28;20026;-76
2022/03/21 12:12:49;;;;;;;15.18;10.68;;;20.70;52.80;;;;;;5020970;28;20145;-77
2022/03/21 12:15:29;;;;;;;16.58;10.48;;;20.60;54.20;;;;;;5037416;28;20029;-76
2022/03/21 12:17:56;;;;;;;16.65;10.23;;;20.60;53.80;;;;;;5059958;22;20072;-79
2022/03/21 12:20:23;;;;;;;13.93;9.25;;;20.60;53.70;;;;;;5038284;28;20101;-79
2022/03/21 12:22:49;;;;;;;18.83;9.60;;;20.60;54.80;;;;;;5024119;28;20021;-76
2022/03/21 12:25:27;;;;;;;18.95;9.48;;;20.60;53.90;;;;;;5045069;28;20444;-77
2022/03/21 12:27:58;;;;;;;14.55;9.00;;;20.40;53.90;;;;;;5043431;28;20120;-77
2022/03/21 12:30:27;;;;;;;15.48;9.23;;;20.40;54.50;;;;;;5043251;28;20043;-77
2022/03/21 12:32:58;;;;;;;14.93;9.90;;;20.50;55.90;;;;;;5043443;28;20025;-75
2022/03/21 12:35:45;;;;;;;16.60;10.13;;;20.70;55.20;;;;;;5045267;28;20064;-77
2022/03/21 12:38:16;;;;;;;14.32;9.40;;;20.70;54.80;;;;;;5043947;28;20028;-77
2022/03/21 12:40:51;;;;;;;14.55;9.25;;;20.80;54.60;;;;;;5043187;28;20025;-78
2022/03/21 12:43:24;;;;;;;13.23;9.10;;;20.90;54.80;;;;;;5043178;28;20052;-77
2022/03/21 12:45:56;;;;;;;14.43;9.07;;;21.00;55.80;;;;;;5024271;28;20489;-78
2022/03/21 12:48:28;;;;;;;12.98;9.10;;;21.30;54.80;;;;;;5006165;28;20037;-77
2022/03/21 12:50:54;;;;;;;15.10;9.15;;;21.20;53.60;;;;;;5023788;28;20026;-77
2022/03/21 12:53:21;;;;;;;16.42;8.18;;;21.40;55.40;;;;;;5022825;28;20471;-75
2022/03/21 12:56:00;;;;;;;14.77;8.52;;;21.50;54.90;;;;;;5022281;28;20026;-77